Time;durP1;ratioP1;P1;durP2;ratioP2;P2;SDS_P1;SDS_P2;PMS_P1;PMS_P2;Temp;Humidity;BMP_temperature;BMP_pressure;BME280_temperature;BME280_humidity;BME280_pressure;Samples;Min_cycle;Max_cycle;Signal;HPM_P1;HPM_P2
2022/06/04 00:00:53;;;;;;;7.97;5.75;;;;;;;13.28;76.11;100261.73;1720558;83;22262;-84
2022/06/04 00:03:21;;;;;;;8.90;5.78;;;;;;;13.29;75.89;100269.61;1691713;84;21122;-84
2022/06/04 00:05:51;;;;;;;14.93;9.10;;;;;;;13.27;75.89;100274.09;1691838;84;21082;-83
2022/06/04 00:08:19;;;;;;;11.60;7.35;;;;;;;13.25;75.95;100275.08;1675056;85;21573;-83
2022/06/04 00:16:23;;;;;;;17.75;10.53;;;;;;;13.26;76.08;100263.57;1692013;84;21075;-83
2022/06/04 00:18:50;;;;;;;17.50;8.60;;;;;;;13.23;76.08;100263.23;1674861;85;21632;-83
2022/06/04 00:21:17;;;;;;;11.60;7.65;;;;;;;13.23;76.19;100268.52;1675080;85;21531;-82
2022/06/04 00:23:43;;;;;;;10.00;6.80;;;;;;;13.21;76.35;100272.97;1702192;84;21074;-82
2022/06/04 00:26:13;;;;;;;13.20;8.15;;;;;;;13.22;76.47;100270.74;1704074;84;21098;-83
2022/06/04 00:28:41;;;;;;;14.78;8.00;;;;;;;13.24;76.60;100266.27;1672906;85;21008;-79
2022/06/04 00:31:08;;;;;;;13.28;7.70;;;;;;;13.23;76.54;100271.59;1672533;85;21145;-84
2022/06/04 00:33:35;;;;;;;10.25;7.55;;;;;;;13.20;76.44;100263.33;1694605;84;21573;-82
2022/06/04 00:36:02;;;;;;;11.70;7.72;;;;;;;13.21;76.41;100265.04;1694265;84;21085;-82
2022/06/04 00:38:30;;;;;;;9.80;6.70;;;;;;;13.22;76.30;100261.49;1672493;85;21437;-82
2022/06/04 00:41:26;;;;;;;7.40;6.55;;;;;;;13.24;76.14;100255.69;1694708;84;21015;-80
2022/06/04 00:44:13;;;;;;;9.20;6.20;;;;;;;13.26;76.00;100253.86;1672379;85;21483;-83
2022/06/04 00:46:57;;;;;;;5.42;4.62;;;;;;;13.27;76.26;100250.31;1672673;85;21108;-83
2022/06/04 00:49:24;;;;;;;9.13;5.37;;;;;;;13.28;76.15;100245.44;1694499;84;21539;-81
2022/06/04 00:51:51;;;;;;;5.90;4.65;;;;;;;13.31;75.94;100238.70;1672921;85;21534;-82
2022/06/04 00:54:17;;;;;;;5.42;4.87;;;;;;;13.36;75.22;100243.44;1668081;85;21095;-83
2022/06/04 00:57:45;;;;;;;6.22;5.12;;;;;;;13.39;74.76;100242.45;1694478;84;21154;-82
2022/06/04 01:00:30;;;;;;;5.30;4.87;;;;;;;13.42;74.76;100243.67;1672570;85;21845;-82
2022/06/04 01:03:17;;;;;;;6.03;4.53;;;;;;;13.44;75.03;100246.27;1694785;84;21117;-81
2022/06/04 01:06:01;;;;;;;8.43;4.40;;;;;;;13.44;75.23;100244.94;1672701;85;21162;-82
2022/06/04 01:08:52;;;;;;;5.10;4.65;;;;;;;13.44;75.18;100243.15;1673132;85;21090;-83
2022/06/04 01:12:11;;;;;;;5.05;4.55;;;;;;;13.45;75.13;100237.40;1694625;84;21086;-83
2022/06/04 01:15:07;;;;;;;9.15;4.42;;;;;;;13.45;74.69;100234.75;1672715;85;21731;-83
2022/06/04 01:17:54;;;;;;;4.87;4.22;;;;;;;13.46;74.61;100229.41;1694464;84;21150;-82
2022/06/04 01:20:41;;;;;;;4.78;4.22;;;;;;;13.45;74.62;100230.35;1672894;85;21073;-83
2022/06/04 01:23:50;;;;;;;4.95;4.45;;;;;;;13.47;74.43;100235.59;1667474;85;21094;-82
2022/06/04 01:26:55;;;;;;;3.83;3.52;;;;;;;13.46;74.42;100232.53;1668208;84;21070;-83
2022/06/04 01:29:27;;;;;;;4.25;3.67;;;;;;;13.47;74.51;100237.77;1694532;84;21189;-82
2022/06/04 01:32:00;;;;;;;5.25;3.95;;;;;;;13.47;74.10;100243.05;1671857;85;21051;-82
2022/06/04 01:34:35;;;;;;;3.40;3.10;;;;;;;13.47;73.50;100247.48;1693877;84;21019;-82
2022/06/04 01:37:29;;;;;;;3.98;3.50;;;;;;;13.48;73.75;100242.14;1700435;84;21120;-82
2022/06/04 01:42:43;;;;;;;;;;;;;;;13.42;74.45;100241.50;1726435;83;22805;-81
2022/06/04 01:45:11;;;;;;;3.45;3.15;;;;;;;13.36;74.45;100239.47;1723243;83;20228;-83
2022/06/04 01:47:37;;;;;;;3.47;3.20;;;;;;;13.35;74.37;100239.52;1723839;83;21055;-82
2022/06/04 01:50:07;;;;;;;4.15;3.00;;;;;;;13.34;74.34;100233.34;1723301;83;21067;-82
2022/06/04 01:52:37;;;;;;;3.40;3.20;;;;;;;13.33;74.49;100231.64;1723745;83;20996;-82
2022/06/04 01:55:13;;;;;;;7.55;3.45;;;;;;;13.32;74.66;100225.94;1703103;83;21834;-83
2022/06/04 01:57:44;;;;;;;4.75;2.95;;;;;;;13.33;74.65;100217.11;1672790;85;21039;-81
2022/06/04 02:00:21;;;;;;;2.65;2.55;;;;;;;13.32;74.35;100212.72;1694179;84;21197;-82
2022/06/04 02:03:03;;;;;;;3.85;2.98;;;;;;;13.35;74.07;100213.95;1671855;85;21530;-81
2022/06/04 02:05:39;;;;;;;4.95;3.10;;;;;;;13.38;73.83;100215.16;1672388;85;21157;-82
2022/06/04 02:08:08;;;;;;;4.62;3.45;;;;;;;13.40;73.32;100209.83;1692997;84;21611;-83
2022/06/04 02:10:53;;;;;;;4.50;4.05;;;;;;;13.44;72.96;100214.55;1672263;85;21094;-83
2022/06/04 02:13:20;;;;;;;6.75;3.98;;;;;;;13.46;71.97;100212.23;1671745;85;21553;-82
2022/06/04 02:16:06;;;;;;;4.03;3.70;;;;;;;13.50;71.50;100207.69;1694210;84;21138;-79
2022/06/04 02:18:35;;;;;;;6.15;3.17;;;;;;;13.54;71.49;100215.47;1672370;85;21145;-83
2022/06/04 02:21:02;;;;;;;3.27;3.00;;;;;;;13.59;71.24;100216.63;1694340;84;21173;-83
2022/06/04 02:23:33;;;;;;;3.85;2.50;;;;;;;13.63;70.99;100223.52;1694283;83;21127;-83
2022/06/04 02:26:00;;;;;;;3.00;2.37;;;;;;;13.67;71.14;100222.52;1694136;84;21072;-82
2022/06/04 02:28:27;;;;;;;2.52;2.22;;;;;;;13.71;71.07;100229.41;1694331;84;21024;-81
2022/06/04 02:31:08;;;;;;;2.70;2.30;;;;;;;13.74;70.74;100233.73;1672229;85;21633;-84
2022/06/04 02:33:56;;;;;;;2.65;2.22;;;;;;;13.78;70.39;100234.48;1694497;84;22305;-82
2022/06/04 02:36:31;;;;;;;2.02;1.80;;;;;;;13.82;70.36;100241.38;1694363;84;21087;-82
2022/06/04 02:39:17;;;;;;;2.35;1.98;;;;;;;13.87;70.07;100241.63;1672516;85;21075;-82
2022/06/04 02:41:49;;;;;;;2.12;2.02;;;;;;;13.93;69.92;100243.17;1672346;85;21023;-82
2022/06/04 02:44:26;;;;;;;4.33;1.98;;;;;;;13.97;69.87;100243.48;1672559;85;21169;-83
2022/06/04 02:47:07;;;;;;;4.25;2.08;;;;;;;14.00;69.48;100240.70;1694647;84;21767;-82
2022/06/04 02:49:42;;;;;;;2.00;1.90;;;;;;;14.06;69.71;100237.83;1671787;85;21062;-83
2022/06/04 02:52:10;;;;;;;2.17;1.85;;;;;;;14.09;69.24;100243.02;1694818;84;21621;-82
2022/06/04 02:54:42;;;;;;;2.35;1.70;;;;;;;14.12;69.06;100241.58;1672286;85;21031;-83
2022/06/04 02:57:11;;;;;;;2.00;1.90;;;;;;;14.17;68.25;100241.86;1694487;84;21704;-81
2022/06/04 02:59:37;;;;;;;2.22;2.12;;;;;;;14.21;68.16;100244.34;1672600;85;21137;-81
2022/06/04 03:02:04;;;;;;;2.37;2.22;;;;;;;14.27;69.63;100247.20;1672623;85;20976;-82
2022/06/04 03:04:49;;;;;;;2.75;1.90;;;;;;;14.28;69.57;100240.52;1691367;84;21081;-82
2022/06/04 03:07:19;;;;;;;2.02;1.70;;;;;;;14.31;70.33;100251.47;1694258;84;21066;-85
2022/06/04 03:09:45;;;;;;;2.20;2.00;;;;;;;14.33;70.71;100246.97;1672547;85;21047;-84
2022/06/04 03:12:12;;;;;;;2.00;1.90;;;;;;;14.34;69.99;100243.86;1602106;85;21173;-82
2022/06/04 03:14:39;;;;;;;1.98;1.80;;;;;;;14.37;70.32;100243.27;1672257;85;21094;-82
2022/06/04 03:17:08;;;;;;;1.87;1.77;;;;;;;14.39;69.87;100246.75;1672438;85;21059;-83
2022/06/04 03:19:35;;;;;;;2.02;1.92;;;;;;;14.44;69.04;100246.55;1672351;85;21036;-83
2022/06/04 03:22:02;;;;;;;1.92;1.80;;;;;;;14.46;68.40;100244.25;1672380;85;21058;-85
2022/06/04 03:24:29;;;;;;;2.10;1.95;;;;;;;14.53;67.56;100249.32;1693575;84;22006;-83
2022/06/04 03:26:55;;;;;;;2.20;2.00;;;;;;;14.60;67.12;100246.86;1674735;85;21195;-84
2022/06/04 03:29:22;;;;;;;2.37;2.20;;;;;;;14.66;66.95;100238.67;1691775;84;21135;-84
2022/06/04 03:31:48;;;;;;;1.90;1.80;;;;;;;14.74;66.83;100237.88;1674645;85;21372;-82
2022/06/04 03:34:15;;;;;;;1.77;1.67;;;;;;;14.81;66.67;100239.38;1682526;84;21074;-82
2022/06/04 03:36:42;;;;;;;2.65;2.08;;;;;;;14.89;66.28;100233.75;1673278;85;21606;-84
2022/06/04 03:39:09;;;;;;;1.80;1.40;;;;;;;14.96;65.30;100234.36;1673166;85;21153;-84
2022/06/04 03:41:37;;;;;;;6.65;1.50;;;;;;;15.03;64.87;100233.20;1665295;85;21086;-83
2022/06/04 03:44:04;;;;;;;1.50;1.40;;;;;;;15.11;64.61;100247.45;1665434;86;21621;-84
2022/06/04 03:46:33;;;;;;;1.80;1.67;;;;;;;15.17;64.42;100241.42;1665281;86;21534;-83
2022/06/04 03:48:59;;;;;;;1.62;1.52;;;;;;;15.23;64.17;100243.83;1665372;86;21108;-84
2022/06/04 03:51:27;;;;;;;1.87;1.50;;;;;;;15.28;64.55;100244.08;1665394;85;21083;-84
2022/06/04 03:53:55;;;;;;;2.55;1.50;;;;;;;15.31;64.00;100238.66;1665313;85;21574;-83
2022/06/04 03:56:22;;;;;;;3.30;1.40;;;;;;;15.36;64.12;100240.64;1665351;86;21641;-83
2022/06/04 03:58:51;;;;;;;2.45;1.30;;;;;;;15.41;63.51;100240.83;1665319;86;21122;-83
2022/06/04 04:01:21;;;;;;;1.40;1.30;;;;;;;15.49;63.46;100240.98;1665411;86;21402;-83
2022/06/04 04:03:48;;;;;;;5.53;1.40;;;;;;;15.53;62.93;100243.45;1668153;84;21132;-83
2022/06/04 04:06:22;;;;;;;3.50;1.25;;;;;;;15.59;63.29;100248.47;1674838;85;21123;-86
2022/06/04 04:08:50;;;;;;;1.82;1.50;;;;;;;15.64;63.01;100248.27;1674977;85;21062;-84
2022/06/04 04:11:20;;;;;;;1.80;1.40;;;;;;;15.70;62.44;100244.47;1674832;85;21617;-86
2022/06/04 04:13:47;;;;;;;1.52;1.40;;;;;;;15.77;63.04;100249.48;1674706;85;21189;-84
2022/06/04 04:16:16;;;;;;;1.55;1.45;;;;;;;15.85;62.44;100245.14;1691577;84;21071;-84
2022/06/04 04:18:44;;;;;;;1.50;1.40;;;;;;;15.92;61.96;100250.59;1674986;85;21062;-83
2022/06/04 04:21:15;;;;;;;1.70;1.10;;;;;;;15.97;61.42;100251.25;1691766;84;21087;-85
2022/06/04 04:23:42;;;;;;;1.45;1.35;;;;;;;16.03;61.37;100246.59;1674693;85;21635;-85
2022/06/04 04:26:10;;;;;;;1.50;1.40;;;;;;;16.08;61.27;100249.42;1693696;84;22053;-84
2022/06/04 04:28:37;;;;;;;1.20;1.12;;;;;;;16.13;60.48;100249.22;1694521;84;21023;-82
2022/06/04 04:31:19;;;;;;;1.30;1.20;;;;;;;16.20;60.74;100247.99;1672248;85;21063;-83
2022/06/04 04:33:45;;;;;;;1.35;1.20;;;;;;;16.28;60.69;100243.19;1694583;84;21094;-85
2022/06/04 04:36:12;;;;;;;1.37;1.27;;;;;;;16.37;61.06;100251.19;1672466;85;21010;-82
2022/06/04 04:38:38;;;;;;;1.20;1.10;;;;;;;16.44;60.43;100253.09;1672721;85;21103;-85
2022/06/04 04:41:11;;;;;;;1.22;1.12;;;;;;;16.50;59.97;100252.33;1694018;84;21039;-84
2022/06/04 04:43:39;;;;;;;3.98;1.02;;;;;;;16.58;59.72;100250.66;1694436;84;22077;-84
2022/06/04 04:46:10;;;;;;;0.90;0.90;;;;;;;16.65;59.87;100254.73;1672332;85;21102;-83
2022/06/04 04:48:36;;;;;;;1.80;1.10;;;;;;;16.74;59.01;100251.24;1672343;85;21039;-83
2022/06/04 04:51:04;;;;;;;1.30;1.10;;;;;;;16.83;58.79;100250.81;1672634;85;21064;-83
2022/06/04 04:53:31;;;;;;;1.07;0.90;;;;;;;16.93;59.26;100246.80;1694296;84;21202;-84
2022/06/04 04:55:57;;;;;;;0.90;0.90;;;;;;;17.00;58.31;100244.70;1694294;84;21118;-84
2022/06/04 04:58:24;;;;;;;2.40;1.17;;;;;;;17.06;58.57;100245.25;1672325;85;21131;-84
2022/06/04 05:00:50;;;;;;;2.35;1.15;;;;;;;17.11;58.37;100245.47;1694243;84;21519;-83
2022/06/04 05:03:17;;;;;;;1.77;1.20;;;;;;;17.19;57.93;100244.63;1694408;84;21082;-83
2022/06/04 05:05:44;;;;;;;1.45;1.05;;;;;;;17.25;58.02;100245.17;1672323;85;20972;-85
2022/06/04 05:08:10;;;;;;;1.37;1.00;;;;;;;17.34;58.55;100250.48;1672705;85;21039;-84
2022/06/04 05:10:39;;;;;;;2.05;1.15;;;;;;;17.42;58.30;100246.97;1694084;84;21138;-84
2022/06/04 05:13:06;;;;;;;0.98;0.98;;;;;;;17.51;58.37;100250.10;1694430;84;21082;-82
2022/06/04 05:15:33;;;;;;;2.45;1.00;;;;;;;17.57;58.05;100245.33;1672551;85;21101;-85
2022/06/04 05:18:00;;;;;;;1.60;1.00;;;;;;;17.66;57.86;100250.63;1672525;85;21122;-84
2022/06/04 05:20:28;;;;;;;1.25;1.15;;;;;;;17.75;57.70;100245.28;1672271;85;21142;-86
2022/06/04 05:22:55;;;;;;;1.75;0.98;;;;;;;17.84;58.19;100244.81;1694286;84;21122;-82
2022/06/04 05:25:22;;;;;;;4.97;1.15;;;;;;;17.93;56.62;100240.83;1672634;85;21043;-86
2022/06/04 05:27:48;;;;;;;1.10;1.00;;;;;;;17.99;56.70;100243.17;1676767;84;21516;-83
2022/06/04 05:30:17;;;;;;;1.55;1.00;;;;;;;18.05;55.53;100243.30;1694310;84;21636;-83
2022/06/04 05:32:44;;;;;;;2.40;0.90;;;;;;;18.12;56.20;100238.02;1694254;84;21062;-83
2022/06/04 05:35:11;;;;;;;1.20;0.95;;;;;;;18.19;56.32;100234.10;1694503;84;21404;-84
2022/06/04 05:37:38;;;;;;;1.95;0.90;;;;;;;18.25;55.93;100235.08;1694290;84;21065;-83
2022/06/04 05:40:07;;;;;;;2.60;1.40;;;;;;;18.31;55.81;100235.23;1694225;84;21151;-84
2022/06/04 05:42:35;;;;;;;1.20;1.10;;;;;;;18.36;55.72;100239.83;1694187;84;21564;-82
2022/06/04 05:45:01;;;;;;;1.35;1.25;;;;;;;18.41;56.05;100239.10;1694173;84;21593;-83
2022/06/04 05:47:28;;;;;;;2.33;1.40;;;;;;;18.48;55.42;100240.47;1694506;84;21082;-85
2022/06/04 05:49:55;;;;;;;3.67;1.32;;;;;;;18.53;55.61;100243.73;1694572;84;21156;-84
2022/06/04 05:52:23;;;;;;;3.10;1.12;;;;;;;18.60;55.48;100238.07;1694478;84;21083;-83
2022/06/04 05:54:49;;;;;;;2.45;1.27;;;;;;;18.66;54.85;100239.03;1694221;84;21077;-82
2022/06/04 05:57:16;;;;;;;1.75;1.05;;;;;;;18.72;54.96;100238.70;1694066;84;21027;-82
2022/06/04 05:59:43;;;;;;;1.17;1.10;;;;;;;18.80;54.31;100235.61;1694422;84;21076;-82
2022/06/04 06:02:11;;;;;;;3.62;1.22;;;;;;;18.85;54.14;100235.75;1694240;84;21137;-84
2022/06/04 06:04:38;;;;;;;1.12;1.00;;;;;;;18.94;54.21;100238.34;1694295;84;21141;-84
2022/06/04 06:07:05;;;;;;;1.35;1.10;;;;;;;19.02;53.64;100233.44;1694193;84;21053;-84
2022/06/04 06:09:32;;;;;;;1.80;1.10;;;;;;;19.13;53.35;100235.45;1694201;84;21015;-84
2022/06/04 06:11:59;;;;;;;3.80;1.30;;;;;;;19.22;52.94;100230.93;1693954;84;21074;-80
2022/06/04 06:14:26;;;;;;;1.07;1.02;;;;;;;19.29;52.45;100232.28;1623360;85;21089;-82
2022/06/04 06:16:53;;;;;;;4.45;1.10;;;;;;;19.37;52.16;100225.64;1672498;85;21146;-85
2022/06/04 06:19:22;;;;;;;2.35;1.27;;;;;;;19.42;51.07;100215.06;1694250;84;21609;-84
2022/06/04 06:21:48;;;;;;;1.52;1.00;;;;;;;19.50;51.51;100214.58;1672420;85;21090;-82
2022/06/04 06:24:16;;;;;;;1.12;1.02;;;;;;;19.58;51.50;100216.31;1694135;84;21011;-82
2022/06/04 06:26:52;;;;;;;1.27;1.17;;;;;;;19.64;51.27;100215.95;1672614;85;21023;-82
2022/06/04 06:29:20;;;;;;;2.02;1.10;;;;;;;19.74;49.91;100218.07;1673180;85;22064;-82
2022/06/04 06:31:46;;;;;;;1.10;1.05;;;;;;;19.82;49.59;100212.66;1673441;85;21597;-81
2022/06/04 06:34:13;;;;;;;1.17;1.07;;;;;;;19.90;49.44;100213.51;1673545;85;21005;-83
2022/06/04 06:36:40;;;;;;;3.10;0.85;;;;;;;19.96;49.15;100213.62;1673278;85;21020;-82
2022/06/04 06:39:07;;;;;;;1.75;0.70;;;;;;;20.01;48.28;100201.68;1673337;85;21145;-84
2022/06/04 06:41:34;;;;;;;2.05;1.12;;;;;;;20.06;47.36;100201.40;1673270;85;21162;-83
2022/06/04 06:44:01;;;;;;;1.47;0.88;;;;;;;20.12;48.23;100189.45;1673286;85;21083;-79
2022/06/04 06:46:38;;;;;;;0.98;0.88;;;;;;;20.19;47.63;100189.44;1673572;85;21134;-84
2022/06/04 06:49:17;;;;;;;1.17;0.93;;;;;;;20.25;46.74;100188.20;1673463;85;21183;-84
2022/06/04 06:51:48;;;;;;;0.88;0.88;;;;;;;20.31;45.68;100187.33;1673697;85;21028;-83
2022/06/04 06:54:16;;;;;;;1.45;0.90;;;;;;;20.34;45.52;100188.47;1673288;85;21151;-84
2022/06/04 06:56:44;;;;;;;3.33;1.00;;;;;;;20.37;44.59;100184.24;1673238;85;21444;-82
2022/06/04 06:59:11;;;;;;;3.47;1.20;;;;;;;20.39;45.51;100185.02;1673307;85;21063;-84
2022/06/04 07:01:38;;;;;;;1.22;0.93;;;;;;;20.44;46.17;100187.86;1673287;85;21005;-81
2022/06/04 07:04:05;;;;;;;1.50;0.93;;;;;;;20.51;44.94;100179.81;1673399;85;21057;-82
2022/06/04 07:06:40;;;;;;;2.62;1.22;;;;;;;20.58;44.90;100179.81;1673335;85;21078;-84
2022/06/04 07:09:17;;;;;;;1.87;1.35;;;;;;;20.65;45.41;100174.46;1673232;85;21126;-82
2022/06/04 07:11:44;;;;;;;2.12;1.25;;;;;;;20.74;44.88;100173.84;1651756;85;21149;-83
2022/06/04 07:14:12;;;;;;;3.22;1.47;;;;;;;20.84;45.40;100171.90;1673277;85;21163;-85
2022/06/04 07:16:41;;;;;;;1.95;1.35;;;;;;;20.92;44.37;100164.22;1673293;85;21506;-84
2022/06/04 07:19:08;;;;;;;3.22;1.37;;;;;;;21.00;44.14;100153.86;1677465;84;21507;-83
2022/06/04 07:21:36;;;;;;;3.90;1.30;;;;;;;21.05;44.24;100141.03;1644605;87;20969;-83
2022/06/04 07:24:04;;;;;;;4.33;1.10;;;;;;;21.14;44.08;100159.11;1673587;85;21100;-79
2022/06/04 07:26:31;;;;;;;1.62;0.90;;;;;;;21.21;42.81;100156.02;1645667;87;21212;-85
2022/06/04 07:28:57;;;;;;;1.50;1.00;;;;;;;21.26;43.57;100145.86;1694409;84;21081;-84
2022/06/04 07:31:24;;;;;;;1.27;0.95;;;;;;;21.34;42.22;100148.37;1694643;84;21138;-85
2022/06/04 07:33:55;;;;;;;0.75;0.72;;;;;;;21.41;43.46;100135.91;1694268;84;21616;-81
2022/06/04 07:36:29;;;;;;;0.98;0.80;;;;;;;21.47;42.15;100132.35;1694414;84;21144;-84
2022/06/04 07:38:56;;;;;;;2.55;0.90;;;;;;;21.55;41.97;100131.79;1693086;84;21031;-85
2022/06/04 07:41:30;;;;;;;1.52;0.70;;;;;;;21.61;41.28;100130.52;1694346;84;21030;-84
2022/06/04 07:43:57;;;;;;;0.93;0.93;;;;;;;21.65;41.09;100133.34;1694647;84;21113;-85
2022/06/04 07:46:25;;;;;;;8.70;0.80;;;;;;;21.74;40.35;100135.37;1694370;84;21156;-85
2022/06/04 07:48:54;;;;;;;0.90;0.80;;;;;;;21.81;40.93;100133.97;1694485;84;21034;-84
2022/06/04 07:51:21;;;;;;;1.92;0.80;;;;;;;21.84;38.87;100129.73;1694259;84;21010;-83
2022/06/04 07:53:48;;;;;;;1.15;1.05;;;;;;;21.79;37.19;100129.70;1694328;84;21319;-83
2022/06/04 07:56:17;;;;;;;2.77;0.95;;;;;;;21.68;38.35;100126.44;1694523;84;21099;-84
2022/06/04 07:58:43;;;;;;;1.52;0.85;;;;;;;21.66;38.59;100129.71;1694405;84;21108;-83
2022/06/04 08:01:14;;;;;;;2.83;0.82;;;;;;;21.68;39.40;100127.77;1694503;84;21141;-84
2022/06/04 08:03:40;;;;;;;0.68;0.68;;;;;;;21.77;41.57;100135.16;1694296;84;21065;-85
2022/06/04 08:06:10;;;;;;;2.50;0.90;;;;;;;21.83;38.76;100122.66;1694555;84;21082;-82
2022/06/04 08:08:37;;;;;;;1.17;0.93;;;;;;;21.86;39.36;100121.09;1694492;84;21214;-85
2022/06/04 08:11:30;;;;;;;1.62;1.00;;;;;;;21.92;40.62;100110.90;1694291;84;21158;-83
2022/06/04 08:13:32;;;;;;;2.35;1.22;;;;;;;22.01;41.06;100112.92;1643267;87;21546;-84
2022/06/04 08:16:04;;;;;;;1.10;1.00;;;;;;;22.06;42.12;100114.29;1676328;85;21035;-83
2022/06/04 08:18:29;;;;;;;3.15;1.12;;;;;;;22.14;41.27;100120.44;1646299;87;20991;-83
2022/06/04 08:20:56;;;;;;;1.05;1.02;;;;;;;22.15;39.92;100118.12;1676625;85;21424;-83
2022/06/04 08:23:22;;;;;;;2.87;1.17;;;;;;;22.12;38.90;100118.83;1646676;87;21648;-84
2022/06/04 08:25:50;;;;;;;3.15;1.00;;;;;;;22.03;39.61;100109.64;1676690;85;21118;-85
2022/06/04 08:28:17;;;;;;;1.17;1.07;;;;;;;21.93;41.44;100108.61;1643743;86;21655;-82
2022/06/04 08:30:44;;;;;;;7.87;1.40;;;;;;;21.97;42.33;100110.08;1671828;85;21100;-83
2022/06/04 08:33:11;;;;;;;1.12;1.00;;;;;;;22.03;42.73;100109.64;1643272;87;21108;-85
2022/06/04 08:35:39;;;;;;;1.30;1.00;;;;;;;22.10;43.20;100101.52;1672059;85;21702;-84
2022/06/04 08:38:07;;;;;;;2.20;1.10;;;;;;;22.10;42.33;100096.16;1643023;87;21690;-85
2022/06/04 08:40:38;;;;;;;1.42;1.05;;;;;;;22.12;43.07;100102.25;1671876;85;21080;-84
2022/06/04 08:43:49;;;;;;;1.00;0.90;;;;;;;22.15;41.89;100098.51;1654091;86;21048;-81
2022/06/04 08:46:26;;;;;;;1.47;1.00;;;;;;;22.21;42.63;100092.20;1648170;86;21557;-82
2022/06/04 08:48:53;;;;;;;1.70;1.10;;;;;;;22.23;39.53;100100.14;1653483;86;21047;-84
2022/06/04 08:51:26;;;;;;;1.10;1.00;;;;;;;22.10;40.17;100094.81;1653711;86;21137;-85
2022/06/04 08:53:56;;;;;;;2.25;1.00;;;;;;;22.09;41.70;100095.81;1672623;85;21504;-84
2022/06/04 08:59:25;;;;;;;2.45;0.98;;;;;;;22.20;41.26;100094.51;1653605;86;21011;-85
2022/06/04 09:02:00;;;;;;;3.95;1.10;;;;;;;22.29;41.31;100090.31;1604268;86;21119;-82
2022/06/04 09:04:36;;;;;;;1.85;0.90;;;;;;;22.42;40.45;100093.79;1653839;86;21082;-84
2022/06/04 09:07:22;;;;;;;0.82;0.82;;;;;;;22.52;38.83;100089.09;1653700;86;21133;-83
2022/06/04 09:10:00;;;;;;;7.72;0.90;;;;;;;22.57;39.47;100081.06;1654019;86;21106;-84
2022/06/04 09:12:38;;;;;;;1.57;0.80;;;;;;;22.74;42.09;100077.09;1664997;85;21124;-83
2022/06/04 09:15:31;;;;;;;3.05;0.90;;;;;;;22.90;41.81;100078.13;1702690;84;21567;-83
2022/06/04 09:17:59;;;;;;;2.33;0.90;;;;;;;23.06;41.66;100075.58;1702918;84;21073;-84
2022/06/04 09:20:43;;;;;;;1.27;1.17;;;;;;;23.20;39.74;100066.01;1702685;84;21540;-85
2022/06/04 09:23:37;;;;;;;1.85;0.78;;;;;;;23.27;37.76;100069.06;1704265;82;21080;-86
2022/06/04 09:26:25;;;;;;;2.72;1.05;;;;;;;23.31;39.18;100070.02;1704564;84;21876;-83
2022/06/04 09:29:23;;;;;;;3.92;1.10;;;;;;;23.44;38.12;100069.06;1695652;84;21036;-84
2022/06/04 09:32:02;;;;;;;1.12;0.90;;;;;;;23.45;36.24;100070.29;1694292;84;20994;-84
2022/06/04 09:34:47;;;;;;;1.15;1.10;;;;;;;23.49;38.07;100062.34;1694749;84;21041;-84
2022/06/04 09:37:13;;;;;;;3.12;1.15;;;;;;;23.49;35.45;100054.78;1669888;84;21216;-85
2022/06/04 09:39:43;;;;;;;1.25;0.80;;;;;;;23.43;37.12;100061.98;1694414;84;21136;-85
2022/06/04 09:42:20;;;;;;;0.75;0.75;;;;;;;23.57;38.64;100061.73;1694325;84;21018;-84
2022/06/04 09:44:58;;;;;;;4.53;1.20;;;;;;;23.76;38.15;100068.31;1694315;84;21085;-86
2022/06/04 09:47:39;;;;;;;2.27;1.07;;;;;;;23.92;37.12;100058.03;1694490;84;21453;-85
2022/06/04 09:50:24;;;;;;;0.75;0.75;;;;;;;24.07;35.95;100064.86;1694202;84;21062;-84
2022/06/04 09:53:22;;;;;;;1.37;1.10;;;;;;;24.09;35.84;100057.98;1694563;84;21196;-86
2022/06/04 09:55:57;;;;;;;2.98;1.02;;;;;;;24.19;36.35;100054.92;1694137;84;21101;-85
2022/06/04 09:58:33;;;;;;;1.52;0.82;;;;;;;24.36;38.23;100057.55;1694425;84;21587;-84
2022/06/04 10:01:09;;;;;;;2.52;0.80;;;;;;;24.54;38.21;100055.62;1694399;84;21077;-84
2022/06/04 10:03:37;;;;;;;0.78;0.78;;;;;;;24.74;37.16;100051.27;1694583;84;21118;-83
2022/06/04 10:06:11;;;;;;;1.72;0.85;;;;;;;24.86;36.77;100039.44;1694511;84;21572;-84
2022/06/04 10:11:35;;;;;;;1.35;0.95;;;;;;;25.07;36.21;100034.05;1694518;84;21021;-83
2022/06/04 10:14:03;;;;;;;2.25;0.90;;;;;;;25.17;35.34;100027.37;1694277;84;21089;-85
2022/06/04 10:16:40;;;;;;;1.05;0.93;;;;;;;25.17;32.30;100026.02;1694453;84;21227;-86
2022/06/04 10:19:20;;;;;;;3.92;1.20;;;;;;;24.88;32.66;100023.16;1694245;84;21139;-85
2022/06/04 10:21:49;;;;;;;1.00;0.95;;;;;;;24.68;34.23;100028.44;1693808;84;22101;-86
2022/06/04 10:24:24;;;;;;;1.57;1.00;;;;;;;24.71;35.32;100032.19;1694459;84;21110;-85
2022/06/04 10:27:08;;;;;;;1.75;1.30;;;;;;;24.82;34.48;100028.09;1694333;84;21027;-85
2022/06/04 10:30:20;;;;;;;1.15;0.80;;;;;;;24.97;34.78;100023.72;1694566;84;21027;-85
2022/06/04 10:33:27;;;;;;;4.33;0.90;;;;;;;25.16;35.78;100017.07;1694292;84;22166;-82
2022/06/04 10:36:35;;;;;;;0.80;0.80;;;;;;;25.39;35.75;100016.92;1618778;88;21613;-85
2022/06/04 10:39:17;;;;;;;1.25;1.10;;;;;;;25.58;35.33;100008.04;1691385;84;21590;-85
2022/06/04 10:41:54;;;;;;;3.35;1.17;;;;;;;25.75;34.25;100002.47;1694369;84;21157;-85
2022/06/04 10:44:54;;;;;;;1.17;0.90;;;;;;;25.82;35.70;100013.05;1693101;84;21072;-85
2022/06/04 10:47:32;;;;;;;3.27;1.10;;;;;;;25.81;34.07;100006.47;1693866;84;21143;-86
2022/06/04 10:50:22;;;;;;;1.02;1.00;;;;;;;25.69;33.71;100007.94;1694477;84;21541;-83
2022/06/04 10:53:06;;;;;;;2.25;1.00;;;;;;;25.53;33.13;100005.75;1694425;84;21028;-85
2022/06/04 10:55:43;;;;;;;1.35;1.10;;;;;;;25.36;34.41;100004.56;1692886;84;21078;-86
2022/06/04 10:58:24;;;;;;;1.45;1.00;;;;;;;25.32;35.17;100007.19;1694313;84;21629;-86
2022/06/04 11:01:01;;;;;;;5.60;0.98;;;;;;;25.31;36.36;99997.89;1694765;84;21148;-85
2022/06/04 11:03:39;;;;;;;5.17;0.82;;;;;;;25.38;36.21;99999.05;1694322;84;21158;-86
2022/06/04 11:06:17;;;;;;;3.25;0.90;;;;;;;25.43;36.08;100002.18;1693070;84;21071;-83
2022/06/04 11:08:51;;;;;;;1.57;1.12;;;;;;;25.46;35.66;100004.60;1694498;84;21608;-86
2022/06/04 11:11:34;;;;;;;2.58;0.98;;;;;;;25.51;35.37;99996.96;1694624;84;21526;-86
2022/06/04 11:14:15;;;;;;;0.85;0.85;;;;;;;25.53;36.22;99997.67;1693667;84;21250;-85
2022/06/04 11:16:56;;;;;;;1.85;1.00;;;;;;;25.52;33.73;99985.20;1694849;84;21194;-84
2022/06/04 11:19:37;;;;;;;0.88;0.88;;;;;;;25.45;34.18;99988.07;1694081;84;21027;-83
2022/06/04 11:22:09;;;;;;;1.95;0.90;;;;;;;25.38;35.29;99992.31;1694696;84;21089;-82
2022/06/04 11:24:50;;;;;;;2.05;0.85;;;;;;;25.18;32.72;99988.19;1690263;84;21074;-81
2022/06/04 11:27:28;;;;;;;0.90;0.90;;;;;;;25.10;34.77;99984.44;1694536;83;21985;-81
2022/06/04 11:29:55;;;;;;;1.98;0.88;;;;;;;25.15;35.39;99979.50;1718735;83;21063;-86
2022/06/04 11:32:45;;;;;;;2.00;0.90;;;;;;;25.24;34.53;99983.25;1695139;83;21695;-85
2022/06/04 11:35:29;;;;;;;0.90;0.90;;;;;;;25.29;33.06;99978.33;1723347;83;21110;-83
2022/06/04 11:38:21;;;;;;;0.93;0.80;;;;;;;25.30;32.72;99967.90;1723912;83;21051;-85
2022/06/04 11:41:30;;;;;;;3.45;1.05;;;;;;;25.18;32.83;99963.95;1723535;83;21153;-85
2022/06/04 11:44:31;;;;;;;1.65;1.10;;;;;;;25.26;34.76;99967.80;1723596;83;21597;-85
2022/06/04 11:47:48;;;;;;;3.95;0.88;;;;;;;25.43;35.21;99963.12;1723401;83;21098;-82
2022/06/04 11:50:26;;;;;;;3.33;0.80;;;;;;;25.58;34.49;99971.16;1723758;83;21466;-85
2022/06/04 11:53:08;;;;;;;0.72;0.72;;;;;;;25.72;34.61;99966.36;1723491;83;21927;-84
2022/06/04 11:55:47;;;;;;;5.97;1.37;;;;;;;25.88;34.65;99963.97;1723822;83;21106;-84
2022/06/04 11:58:25;;;;;;;2.85;0.82;;;;;;;26.00;34.30;99959.83;1697108;83;21562;-84
2022/06/04 12:00:52;;;;;;;2.08;0.62;;;;;;;26.15;33.98;99957.05;1721976;83;21086;-83
2022/06/04 12:03:40;;;;;;;1.72;0.80;;;;;;;26.31;32.95;99947.89;1691777;83;21483;-81
2022/06/04 12:06:12;;;;;;;1.62;0.90;;;;;;;26.47;32.33;99950.48;1723701;83;20999;-85
2022/06/04 12:08:56;;;;;;;1.60;0.90;;;;;;;26.63;32.98;99952.12;1722684;83;21084;-84
2022/06/04 12:11:36;;;;;;;3.60;0.80;;;;;;;26.76;33.10;99942.84;1724008;83;21072;-84